sensor_id;sensor_type;location;lat;lon;timestamp;temperature;humidity
69335;SHT31;56477;52.742;15.242;2024-03-02T00:00:15;10.62;95.34
69335;SHT31;56477;52.742;15.242;2024-03-02T00:03:00;10.59;95.51
69335;SHT31;56477;52.742;15.242;2024-03-02T00:05:26;10.62;95.30
69335;SHT31;56477;52.742;15.242;2024-03-02T00:07:54;10.66;95.25
69335;SHT31;56477;52.742;15.242;2024-03-02T00:10:26;10.59;95.39
69335;SHT31;56477;52.742;15.242;2024-03-02T00:12:57;10.59;95.57
69335;SHT31;56477;52.742;15.242;2024-03-02T00:15:35;10.59;95.77
69335;SHT31;56477;52.742;15.242;2024-03-02T00:18:04;10.56;95.87
69335;SHT31;56477;52.742;15.242;2024-03-02T00:20:30;10.58;96.06
69335;SHT31;56477;52.742;15.242;2024-03-02T00:23:04;10.50;96.41
69335;SHT31;56477;52.742;15.242;2024-03-02T00:25:50;10.45;96.54
69335;SHT31;56477;52.742;15.242;2024-03-02T00:31:10;10.45;96.62
69335;SHT31;56477;52.742;15.242;2024-03-02T00:33:42;10.41;96.95
69335;SHT31;56477;52.742;15.242;2024-03-02T00:36:09;10.38;96.91
69335;SHT31;56477;52.742;15.242;2024-03-02T00:41:15;10.28;97.41
69335;SHT31;56477;52.742;15.242;2024-03-02T00:44:03;10.22;97.54
69335;SHT31;56477;52.742;15.242;2024-03-02T00:46:36;10.21;97.57
69335;SHT31;56477;52.742;15.242;2024-03-02T00:51:38;10.17;97.77
69335;SHT31;56477;52.742;15.242;2024-03-02T00:54:06;10.15;97.76
69335;SHT31;56477;52.742;15.242;2024-03-02T00:56:34;10.09;98.17
69335;SHT31;56477;52.742;15.242;2024-03-02T00:59:00;10.08;97.99
69335;SHT31;56477;52.742;15.242;2024-03-02T01:01:26;10.09;97.97
69335;SHT31;56477;52.742;15.242;2024-03-02T01:03:52;10.11;98.17
69335;SHT31;56477;52.742;15.242;2024-03-02T01:06:19;10.11;98.10
69335;SHT31;56477;52.742;15.242;2024-03-02T01:08:45;10.12;98.12
69335;SHT31;56477;52.742;15.242;2024-03-02T01:11:12;10.15;97.96
69335;SHT31;56477;52.742;15.242;2024-03-02T01:13:37;10.11;98.28
69335;SHT31;56477;52.742;15.242;2024-03-02T01:16:04;10.14;98.10
69335;SHT31;56477;52.742;15.242;2024-03-02T01:18:29;10.19;97.87
69335;SHT31;56477;52.742;15.242;2024-03-02T01:20:56;10.12;98.15
69335;SHT31;56477;52.742;15.242;2024-03-02T01:23:23;10.19;97.99
69335;SHT31;56477;52.742;15.242;2024-03-02T01:25:50;10.14;98.03
69335;SHT31;56477;52.742;15.242;2024-03-02T01:28:16;10.12;98.10
69335;SHT31;56477;52.742;15.242;2024-03-02T01:30:42;10.17;97.95
69335;SHT31;56477;52.742;15.242;2024-03-02T01:33:08;10.12;98.20
69335;SHT31;56477;52.742;15.242;2024-03-02T01:35:34;10.09;98.25
69335;SHT31;56477;52.742;15.242;2024-03-02T01:38:00;10.08;98.34
69335;SHT31;56477;52.742;15.242;2024-03-02T01:40:27;10.08;98.38
69335;SHT31;56477;52.742;15.242;2024-03-02T01:42:53;10.08;98.31
69335;SHT31;56477;52.742;15.242;2024-03-02T01:45:28;10.08;98.36
69335;SHT31;56477;52.742;15.242;2024-03-02T01:47:55;10.09;98.22
69335;SHT31;56477;52.742;15.242;2024-03-02T01:50:28;10.05;98.44
69335;SHT31;56477;52.742;15.242;2024-03-02T01:52:55;10.08;98.42
69335;SHT31;56477;52.742;15.242;2024-03-02T01:55:21;10.07;98.54
69335;SHT31;56477;52.742;15.242;2024-03-02T01:57:48;10.07;98.47
69335;SHT31;56477;52.742;15.242;2024-03-02T02:00:16;10.05;98.57
69335;SHT31;56477;52.742;15.242;2024-03-02T02:02:43;10.01;98.68
69335;SHT31;56477;52.742;15.242;2024-03-02T02:05:09;10.05;98.65
69335;SHT31;56477;52.742;15.242;2024-03-02T02:07:36;10.02;98.69
69335;SHT31;56477;52.742;15.242;2024-03-02T02:10:02;10.05;98.65
69335;SHT31;56477;52.742;15.242;2024-03-02T02:12:28;10.08;98.63
69335;SHT31;56477;52.742;15.242;2024-03-02T02:14:54;10.08;98.57
69335;SHT31;56477;52.742;15.242;2024-03-02T02:17:19;10.04;98.68
69335;SHT31;56477;52.742;15.242;2024-03-02T02:19:45;10.07;98.67
69335;SHT31;56477;52.742;15.242;2024-03-02T02:22:11;10.08;98.77
69335;SHT31;56477;52.742;15.242;2024-03-02T02:24:41;10.08;98.68
69335;SHT31;56477;52.742;15.242;2024-03-02T02:27:10;10.07;98.69
69335;SHT31;56477;52.742;15.242;2024-03-02T02:29:37;10.05;98.74
69335;SHT31;56477;52.742;15.242;2024-03-02T02:32:03;10.08;98.73
69335;SHT31;56477;52.742;15.242;2024-03-02T02:34:29;10.09;98.58
69335;SHT31;56477;52.742;15.242;2024-03-02T02:36:55;10.12;98.43
69335;SHT31;56477;52.742;15.242;2024-03-02T02:39:22;10.12;98.35
69335;SHT31;56477;52.742;15.242;2024-03-02T02:41:48;10.12;98.51
69335;SHT31;56477;52.742;15.242;2024-03-02T02:44:14;10.12;98.50
69335;SHT31;56477;52.742;15.242;2024-03-02T02:46:40;10.15;98.45
69335;SHT31;56477;52.742;15.242;2024-03-02T02:49:07;10.14;98.49
69335;SHT31;56477;52.742;15.242;2024-03-02T02:51:33;10.15;98.55
69335;SHT31;56477;52.742;15.242;2024-03-02T02:53:59;10.15;98.59
69335;SHT31;56477;52.742;15.242;2024-03-02T02:56:25;10.15;98.47
69335;SHT31;56477;52.742;15.242;2024-03-02T02:58:51;10.18;98.46
69335;SHT31;56477;52.742;15.242;2024-03-02T03:01:17;10.15;98.46
69335;SHT31;56477;52.742;15.242;2024-03-02T03:03:44;10.15;98.50
69335;SHT31;56477;52.742;15.242;2024-03-02T03:06:10;10.19;98.34
69335;SHT31;56477;52.742;15.242;2024-03-02T03:08:36;10.18;98.33
69335;SHT31;56477;52.742;15.242;2024-03-02T03:11:02;10.19;98.31
69335;SHT31;56477;52.742;15.242;2024-03-02T03:13:29;10.21;98.23
69335;SHT31;56477;52.742;15.242;2024-03-02T03:15:54;10.17;98.42
69335;SHT31;56477;52.742;15.242;2024-03-02T03:18:21;10.18;98.36
69335;SHT31;56477;52.742;15.242;2024-03-02T03:20:46;10.21;98.26
69335;SHT31;56477;52.742;15.242;2024-03-02T03:23:12;10.22;98.39
69335;SHT31;56477;52.742;15.242;2024-03-02T03:25:45;10.19;98.32
69335;SHT31;56477;52.742;15.242;2024-03-02T03:28:11;10.22;98.28
69335;SHT31;56477;52.742;15.242;2024-03-02T03:30:38;10.24;98.19
69335;SHT31;56477;52.742;15.242;2024-03-02T03:33:05;10.27;98.13
69335;SHT31;56477;52.742;15.242;2024-03-02T03:35:32;10.22;98.28
69335;SHT31;56477;52.742;15.242;2024-03-02T03:37:58;10.27;98.12
69335;SHT31;56477;52.742;15.242;2024-03-02T03:40:24;10.28;98.09
69335;SHT31;56477;52.742;15.242;2024-03-02T03:42:50;10.28;98.08
69335;SHT31;56477;52.742;15.242;2024-03-02T03:45:17;10.31;97.92
69335;SHT31;56477;52.742;15.242;2024-03-02T03:47:43;10.28;97.99
69335;SHT31;56477;52.742;15.242;2024-03-02T03:50:09;10.25;98.17
69335;SHT31;56477;52.742;15.242;2024-03-02T03:52:35;10.29;98.03
69335;SHT31;56477;52.742;15.242;2024-03-02T03:55:01;10.25;98.02
69335;SHT31;56477;52.742;15.242;2024-03-02T03:57:27;10.27;98.14
69335;SHT31;56477;52.742;15.242;2024-03-02T03:59:53;10.29;97.94
69335;SHT31;56477;52.742;15.242;2024-03-02T04:02:19;10.32;97.78
69335;SHT31;56477;52.742;15.242;2024-03-02T04:04:45;10.27;97.95
69335;SHT31;56477;52.742;15.242;2024-03-02T04:07:12;10.31;97.84
69335;SHT31;56477;52.742;15.242;2024-03-02T04:09:37;10.32;97.74
69335;SHT31;56477;52.742;15.242;2024-03-02T04:12:04;10.32;97.75
69335;SHT31;56477;52.742;15.242;2024-03-02T04:14:29;10.29;97.77
69335;SHT31;56477;52.742;15.242;2024-03-02T04:16:55;10.31;97.74
69335;SHT31;56477;52.742;15.242;2024-03-02T04:19:21;10.28;97.77
69335;SHT31;56477;52.742;15.242;2024-03-02T04:21:47;10.29;97.80
69335;SHT31;56477;52.742;15.242;2024-03-02T04:24:13;10.29;97.69
69335;SHT31;56477;52.742;15.242;2024-03-02T04:26:39;10.28;97.82
69335;SHT31;56477;52.742;15.242;2024-03-02T04:29:05;10.29;97.78
69335;SHT31;56477;52.742;15.242;2024-03-02T04:31:31;10.28;97.89
69335;SHT31;56477;52.742;15.242;2024-03-02T04:33:57;10.24;97.95
69335;SHT31;56477;52.742;15.242;2024-03-02T04:36:23;10.25;97.83
69335;SHT31;56477;52.742;15.242;2024-03-02T04:38:49;10.25;97.90
69335;SHT31;56477;52.742;15.242;2024-03-02T04:41:15;10.27;97.84
69335;SHT31;56477;52.742;15.242;2024-03-02T04:43:41;10.28;97.79
69335;SHT31;56477;52.742;15.242;2024-03-02T04:46:07;10.31;97.73
69335;SHT31;56477;52.742;15.242;2024-03-02T04:48:33;10.28;97.69
69335;SHT31;56477;52.742;15.242;2024-03-02T04:51:00;10.28;97.79
69335;SHT31;56477;52.742;15.242;2024-03-02T04:53:26;10.25;97.88
69335;SHT31;56477;52.742;15.242;2024-03-02T04:55:52;10.27;97.81
69335;SHT31;56477;52.742;15.242;2024-03-02T04:58:30;10.29;97.74
69335;SHT31;56477;52.742;15.242;2024-03-02T05:00:56;10.24;97.77
69335;SHT31;56477;52.742;15.242;2024-03-02T05:03:22;10.22;97.83
69335;SHT31;56477;52.742;15.242;2024-03-02T05:05:48;10.22;97.84
69335;SHT31;56477;52.742;15.242;2024-03-02T05:08:13;10.21;97.86
69335;SHT31;56477;52.742;15.242;2024-03-02T05:10:41;10.27;97.79
69335;SHT31;56477;52.742;15.242;2024-03-02T05:13:07;10.24;97.81
69335;SHT31;56477;52.742;15.242;2024-03-02T05:15:33;10.24;97.82
69335;SHT31;56477;52.742;15.242;2024-03-02T05:17:59;10.24;97.77
69335;SHT31;56477;52.742;15.242;2024-03-02T05:20:26;10.25;97.68
69335;SHT31;56477;52.742;15.242;2024-03-02T05:22:51;10.22;97.81
69335;SHT31;56477;52.742;15.242;2024-03-02T05:25:18;10.24;97.72
69335;SHT31;56477;52.742;15.242;2024-03-02T05:27:44;10.24;97.64
69335;SHT31;56477;52.742;15.242;2024-03-02T05:30:10;10.18;97.91
69335;SHT31;56477;52.742;15.242;2024-03-02T05:32:36;10.21;97.72
69335;SHT31;56477;52.742;15.242;2024-03-02T05:35:03;10.17;97.89
69335;SHT31;56477;52.742;15.242;2024-03-02T05:37:30;10.19;97.82
69335;SHT31;56477;52.742;15.242;2024-03-02T05:39:56;10.21;97.66
69335;SHT31;56477;52.742;15.242;2024-03-02T05:42:22;10.15;97.95
69335;SHT31;56477;52.742;15.242;2024-03-02T05:44:48;10.18;97.78
69335;SHT31;56477;52.742;15.242;2024-03-02T05:47:14;10.18;97.80
69335;SHT31;56477;52.742;15.242;2024-03-02T05:49:40;10.15;97.94
69335;SHT31;56477;52.742;15.242;2024-03-02T05:52:06;10.17;97.87
69335;SHT31;56477;52.742;15.242;2024-03-02T05:54:32;10.17;97.87
69335;SHT31;56477;52.742;15.242;2024-03-02T05:56:58;10.15;97.82
69335;SHT31;56477;52.742;15.242;2024-03-02T05:59:42;10.14;97.87
69335;SHT31;56477;52.742;15.242;2024-03-02T06:02:09;10.12;98.04
69335;SHT31;56477;52.742;15.242;2024-03-02T06:04:35;10.14;97.92
69335;SHT31;56477;52.742;15.242;2024-03-02T06:07:01;10.14;97.79
69335;SHT31;56477;52.742;15.242;2024-03-02T06:09:27;10.17;97.81
69335;SHT31;56477;52.742;15.242;2024-03-02T06:11:52;10.18;97.65
69335;SHT31;56477;52.742;15.242;2024-03-02T06:14:19;10.21;97.70
69335;SHT31;56477;52.742;15.242;2024-03-02T06:16:45;10.17;97.67
69335;SHT31;56477;52.742;15.242;2024-03-02T06:19:11;10.15;97.82
69335;SHT31;56477;52.742;15.242;2024-03-02T06:21:36;10.09;97.97
69335;SHT31;56477;52.742;15.242;2024-03-02T06:24:03;10.09;97.90
69335;SHT31;56477;52.742;15.242;2024-03-02T06:26:28;10.09;98.04
69335;SHT31;56477;52.742;15.242;2024-03-02T06:28:56;10.08;98.15
69335;SHT31;56477;52.742;15.242;2024-03-02T06:31:21;10.12;97.91
69335;SHT31;56477;52.742;15.242;2024-03-02T06:33:47;10.09;97.83
69335;SHT31;56477;52.742;15.242;2024-03-02T06:36:13;10.07;98.01
69335;SHT31;56477;52.742;15.242;2024-03-02T06:38:41;10.09;98.00
69335;SHT31;56477;52.742;15.242;2024-03-02T06:41:07;10.09;97.84
69335;SHT31;56477;52.742;15.242;2024-03-02T06:43:33;10.07;98.12
69335;SHT31;56477;52.742;15.242;2024-03-02T06:45:59;10.08;97.97
69335;SHT31;56477;52.742;15.242;2024-03-02T06:48:25;10.08;97.99
69335;SHT31;56477;52.742;15.242;2024-03-02T06:50:51;10.09;97.86
69335;SHT31;56477;52.742;15.242;2024-03-02T06:53:17;10.12;97.83
69335;SHT31;56477;52.742;15.242;2024-03-02T06:55:45;10.09;98.10
69335;SHT31;56477;52.742;15.242;2024-03-02T06:58:12;10.02;98.09
69335;SHT31;56477;52.742;15.242;2024-03-02T07:00:38;10.12;97.91
69335;SHT31;56477;52.742;15.242;2024-03-02T07:03:04;10.09;98.06
69335;SHT31;56477;52.742;15.242;2024-03-02T07:05:30;10.09;97.90
69335;SHT31;56477;52.742;15.242;2024-03-02T07:07:56;10.08;98.00
69335;SHT31;56477;52.742;15.242;2024-03-02T07:10:22;10.12;97.81
69335;SHT31;56477;52.742;15.242;2024-03-02T07:12:48;10.09;97.95
69335;SHT31;56477;52.742;15.242;2024-03-02T07:15:14;10.07;97.99
69335;SHT31;56477;52.742;15.242;2024-03-02T07:17:59;10.14;97.98
69335;SHT31;56477;52.742;15.242;2024-03-02T07:20:24;10.14;97.94
69335;SHT31;56477;52.742;15.242;2024-03-02T07:22:50;10.24;97.65
69335;SHT31;56477;52.742;15.242;2024-03-02T07:25:16;10.24;97.60
69335;SHT31;56477;52.742;15.242;2024-03-02T07:27:42;10.27;97.51
69335;SHT31;56477;52.742;15.242;2024-03-02T07:30:09;10.21;97.65
69335;SHT31;56477;52.742;15.242;2024-03-02T07:32:37;10.18;97.66
69335;SHT31;56477;52.742;15.242;2024-03-02T07:35:03;10.17;97.78
69335;SHT31;56477;52.742;15.242;2024-03-02T07:37:29;10.24;97.67
69335;SHT31;56477;52.742;15.242;2024-03-02T07:39:55;10.25;97.67
69335;SHT31;56477;52.742;15.242;2024-03-02T07:42:21;10.27;97.68
69335;SHT31;56477;52.742;15.242;2024-03-02T07:44:47;10.32;97.42
69335;SHT31;56477;52.742;15.242;2024-03-02T07:47:13;10.27;97.55
69335;SHT31;56477;52.742;15.242;2024-03-02T07:49:39;10.29;97.57
69335;SHT31;56477;52.742;15.242;2024-03-02T07:52:05;10.32;97.59
69335;SHT31;56477;52.742;15.242;2024-03-02T07:54:31;10.37;97.40
69335;SHT31;56477;52.742;15.242;2024-03-02T07:56:57;10.42;97.18
69335;SHT31;56477;52.742;15.242;2024-03-02T07:59:23;10.37;97.21
69335;SHT31;56477;52.742;15.242;2024-03-02T08:01:49;10.42;97.14
69335;SHT31;56477;52.742;15.242;2024-03-02T08:04:18;10.35;97.34
69335;SHT31;56477;52.742;15.242;2024-03-02T08:06:45;10.38;97.04
69335;SHT31;56477;52.742;15.242;2024-03-02T08:09:11;10.38;97.17
69335;SHT31;56477;52.742;15.242;2024-03-02T08:11:37;10.37;97.30
69335;SHT31;56477;52.742;15.242;2024-03-02T08:14:03;10.42;97.20
69335;SHT31;56477;52.742;15.242;2024-03-02T08:16:29;10.41;97.26
69335;SHT31;56477;52.742;15.242;2024-03-02T08:18:55;10.45;97.17
69335;SHT31;56477;52.742;15.242;2024-03-02T08:21:24;10.44;97.10
69335;SHT31;56477;52.742;15.242;2024-03-02T08:23:50;10.46;97.14
69335;SHT31;56477;52.742;15.242;2024-03-02T08:26:16;10.44;97.07
69335;SHT31;56477;52.742;15.242;2024-03-02T08:28:42;10.41;97.24
69335;SHT31;56477;52.742;15.242;2024-03-02T08:31:11;10.50;97.00
69335;SHT31;56477;52.742;15.242;2024-03-02T08:33:37;10.52;96.83
69335;SHT31;56477;52.742;15.242;2024-03-02T08:36:03;10.59;96.68
69335;SHT31;56477;52.742;15.242;2024-03-02T08:38:29;10.55;96.69
69335;SHT31;56477;52.742;15.242;2024-03-02T08:40:55;10.67;96.46
69335;SHT31;56477;52.742;15.242;2024-03-02T08:43:21;10.63;96.45
69335;SHT31;56477;52.742;15.242;2024-03-02T08:45:48;10.72;96.27
69335;SHT31;56477;52.742;15.242;2024-03-02T08:48:15;10.62;96.50
69335;SHT31;56477;52.742;15.242;2024-03-02T08:50:41;10.65;96.28
69335;SHT31;56477;52.742;15.242;2024-03-02T08:53:06;10.56;96.71
69335;SHT31;56477;52.742;15.242;2024-03-02T08:55:33;10.62;96.56
69335;SHT31;56477;52.742;15.242;2024-03-02T08:57:59;10.70;96.46
69335;SHT31;56477;52.742;15.242;2024-03-02T09:00:26;10.60;96.46
69335;SHT31;56477;52.742;15.242;2024-03-02T09:02:51;10.65;96.44
69335;SHT31;56477;52.742;15.242;2024-03-02T09:05:18;10.65;96.42
69335;SHT31;56477;52.742;15.242;2024-03-02T09:07:43;10.72;96.30
69335;SHT31;56477;52.742;15.242;2024-03-02T09:10:09;10.72;96.18
69335;SHT31;56477;52.742;15.242;2024-03-02T09:12:35;10.72;96.41
69335;SHT31;56477;52.742;15.242;2024-03-02T09:15:03;10.76;96.11
69335;SHT31;56477;52.742;15.242;2024-03-02T09:17:29;10.75;95.84
69335;SHT31;56477;52.742;15.242;2024-03-02T09:19:55;10.76;95.78
69335;SHT31;56477;52.742;15.242;2024-03-02T09:22:21;10.75;96.10
69335;SHT31;56477;52.742;15.242;2024-03-02T09:24:47;10.72;96.34
69335;SHT31;56477;52.742;15.242;2024-03-02T09:27:13;10.77;96.17
69335;SHT31;56477;52.742;15.242;2024-03-02T09:29:39;10.80;96.02
69335;SHT31;56477;52.742;15.242;2024-03-02T09:32:06;10.83;95.91
69335;SHT31;56477;52.742;15.242;2024-03-02T09:34:32;10.83;95.85
69335;SHT31;56477;52.742;15.242;2024-03-02T09:36:58;10.86;95.78
69335;SHT31;56477;52.742;15.242;2024-03-02T09:39:24;10.76;95.95
69335;SHT31;56477;52.742;15.242;2024-03-02T09:41:53;10.80;95.72
69335;SHT31;56477;52.742;15.242;2024-03-02T09:44:19;10.79;95.72
69335;SHT31;56477;52.742;15.242;2024-03-02T09:46:49;10.79;95.76
69335;SHT31;56477;52.742;15.242;2024-03-02T09:49:15;10.66;96.16
69335;SHT31;56477;52.742;15.242;2024-03-02T09:51:46;10.70;96.29
69335;SHT31;56477;52.742;15.242;2024-03-02T09:54:12;10.70;96.18
69335;SHT31;56477;52.742;15.242;2024-03-02T09:56:39;10.72;96.27
69335;SHT31;56477;52.742;15.242;2024-03-02T09:59:05;10.72;96.13
69335;SHT31;56477;52.742;15.242;2024-03-02T10:01:31;10.75;96.09
69335;SHT31;56477;52.742;15.242;2024-03-02T10:04:00;10.77;96.22
69335;SHT31;56477;52.742;15.242;2024-03-02T10:06:27;10.87;95.91
69335;SHT31;56477;52.742;15.242;2024-03-02T10:08:55;10.81;95.83
69335;SHT31;56477;52.742;15.242;2024-03-02T10:11:31;10.81;96.03
69335;SHT31;56477;52.742;15.242;2024-03-02T10:14:13;10.86;95.90
69335;SHT31;56477;52.742;15.242;2024-03-02T10:16:41;10.89;95.74
69335;SHT31;56477;52.742;15.242;2024-03-02T10:21:46;10.89;95.75
69335;SHT31;56477;52.742;15.242;2024-03-02T10:24:13;10.87;95.75
69335;SHT31;56477;52.742;15.242;2024-03-02T10:26:39;10.89;95.61
69335;SHT31;56477;52.742;15.242;2024-03-02T10:29:05;10.95;95.66
69335;SHT31;56477;52.742;15.242;2024-03-02T10:31:31;10.96;95.68
69335;SHT31;56477;52.742;15.242;2024-03-02T10:33:58;10.93;95.74
69335;SHT31;56477;52.742;15.242;2024-03-02T10:36:23;11.00;95.46
69335;SHT31;56477;52.742;15.242;2024-03-02T10:38:52;11.06;95.56
69335;SHT31;56477;52.742;15.242;2024-03-02T10:41:24;11.08;95.54
69335;SHT31;56477;52.742;15.242;2024-03-02T10:43:53;11.24;95.32
69335;SHT31;56477;52.742;15.242;2024-03-02T10:46:28;11.25;95.02
69335;SHT31;56477;52.742;15.242;2024-03-02T10:48:58;11.16;95.11
69335;SHT31;56477;52.742;15.242;2024-03-02T10:51:25;11.17;94.87
69335;SHT31;56477;52.742;15.242;2024-03-02T10:53:52;11.08;95.52
69335;SHT31;56477;52.742;15.242;2024-03-02T10:56:26;11.23;94.89
69335;SHT31;56477;52.742;15.242;2024-03-02T10:59:22;11.30;94.48
69335;SHT31;56477;52.742;15.242;2024-03-02T11:01:47;11.31;94.31
69335;SHT31;56477;52.742;15.242;2024-03-02T11:04:15;11.35;94.01
69335;SHT31;56477;52.742;15.242;2024-03-02T11:06:48;11.31;94.08
69335;SHT31;56477;52.742;15.242;2024-03-02T11:09:16;11.38;93.86
69335;SHT31;56477;52.742;15.242;2024-03-02T11:11:45;11.35;94.00
69335;SHT31;56477;52.742;15.242;2024-03-02T11:14:16;11.45;93.81
69335;SHT31;56477;52.742;15.242;2024-03-02T11:16:44;11.48;93.58
69335;SHT31;56477;52.742;15.242;2024-03-02T11:19:13;11.51;93.64
69335;SHT31;56477;52.742;15.242;2024-03-02T11:21:39;11.65;93.29
69335;SHT31;56477;52.742;15.242;2024-03-02T11:26:47;11.75;92.60
69335;SHT31;56477;52.742;15.242;2024-03-02T11:32:05;11.87;92.40
69335;SHT31;56477;52.742;15.242;2024-03-02T11:34:36;11.82;92.35
69335;SHT31;56477;52.742;15.242;2024-03-02T11:37:02;11.93;92.04
69335;SHT31;56477;52.742;15.242;2024-03-02T11:39:29;11.89;92.09
69335;SHT31;56477;52.742;15.242;2024-03-02T11:41:56;12.03;91.79
69335;SHT31;56477;52.742;15.242;2024-03-02T11:44:27;11.85;91.95
69335;SHT31;56477;52.742;15.242;2024-03-02T11:47:05;11.95;91.91
69335;SHT31;56477;52.742;15.242;2024-03-02T11:49:53;12.10;91.34
69335;SHT31;56477;52.742;15.242;2024-03-02T11:52:20;12.16;91.15
69335;SHT31;56477;52.742;15.242;2024-03-02T11:54:47;12.26;91.08
69335;SHT31;56477;52.742;15.242;2024-03-02T11:57:21;12.26;91.10
69335;SHT31;56477;52.742;15.242;2024-03-02T11:59:52;12.31;90.66
69335;SHT31;56477;52.742;15.242;2024-03-02T12:02:19;12.37;90.45
69335;SHT31;56477;52.742;15.242;2024-03-02T12:04:47;12.30;90.61
69335;SHT31;56477;52.742;15.242;2024-03-02T12:07:21;12.40;90.89
69335;SHT31;56477;52.742;15.242;2024-03-02T12:09:49;12.61;89.86
69335;SHT31;56477;52.742;15.242;2024-03-02T12:12:15;12.74;89.23
69335;SHT31;56477;52.742;15.242;2024-03-02T12:14:50;12.55;89.47
69335;SHT31;56477;52.742;15.242;2024-03-02T12:17:17;12.80;89.21
69335;SHT31;56477;52.742;15.242;2024-03-02T12:19:43;12.62;89.10
69335;SHT31;56477;52.742;15.242;2024-03-02T12:22:09;12.67;89.14
69335;SHT31;56477;52.742;15.242;2024-03-02T12:24:35;12.95;89.19
69335;SHT31;56477;52.742;15.242;2024-03-02T12:27:04;13.22;87.27
69335;SHT31;56477;52.742;15.242;2024-03-02T12:29:31;13.30;87.03
69335;SHT31;56477;52.742;15.242;2024-03-02T12:31:56;13.42;86.62
69335;SHT31;56477;52.742;15.242;2024-03-02T12:34:22;13.49;86.16
69335;SHT31;56477;52.742;15.242;2024-03-02T12:36:49;13.39;86.45
69335;SHT31;56477;52.742;15.242;2024-03-02T12:39:19;13.49;86.60
69335;SHT31;56477;52.742;15.242;2024-03-02T12:41:46;13.59;86.06
69335;SHT31;56477;52.742;15.242;2024-03-02T12:44:12;13.36;86.29
69335;SHT31;56477;52.742;15.242;2024-03-02T12:46:38;13.54;85.97
69335;SHT31;56477;52.742;15.242;2024-03-02T12:49:08;13.66;85.96
69335;SHT31;56477;52.742;15.242;2024-03-02T12:51:36;13.77;85.72
69335;SHT31;56477;52.742;15.242;2024-03-02T12:54:02;14.29;84.12
69335;SHT31;56477;52.742;15.242;2024-03-02T12:56:29;14.38;83.24
69335;SHT31;56477;52.742;15.242;2024-03-02T12:58:55;14.00;84.39
69335;SHT31;56477;52.742;15.242;2024-03-02T13:01:21;13.74;84.70
69335;SHT31;56477;52.742;15.242;2024-03-02T13:03:51;13.47;85.70
69335;SHT31;56477;52.742;15.242;2024-03-02T13:06:18;13.49;85.60
69335;SHT31;56477;52.742;15.242;2024-03-02T13:08:45;13.35;86.07
69335;SHT31;56477;52.742;15.242;2024-03-02T13:11:11;13.64;85.70
69335;SHT31;56477;52.742;15.242;2024-03-02T13:13:38;13.89;85.32
69335;SHT31;56477;52.742;15.242;2024-03-02T13:16:10;13.94;84.64
69335;SHT31;56477;52.742;15.242;2024-03-02T13:18:38;13.94;84.88
69335;SHT31;56477;52.742;15.242;2024-03-02T13:21:05;13.67;84.39
69335;SHT31;56477;52.742;15.242;2024-03-02T13:23:31;13.68;84.47
69335;SHT31;56477;52.742;15.242;2024-03-02T13:25:57;13.80;84.86
69335;SHT31;56477;52.742;15.242;2024-03-02T13:28:26;14.05;84.51
69335;SHT31;56477;52.742;15.242;2024-03-02T13:30:52;13.88;83.95
69335;SHT31;56477;52.742;15.242;2024-03-02T13:33:19;14.24;83.40
69335;SHT31;56477;52.742;15.242;2024-03-02T13:35:51;14.22;83.71
69335;SHT31;56477;52.742;15.242;2024-03-02T13:38:19;14.14;83.33
69335;SHT31;56477;52.742;15.242;2024-03-02T13:40:45;14.14;83.18
69335;SHT31;56477;52.742;15.242;2024-03-02T13:43:12;13.97;83.22
69335;SHT31;56477;52.742;15.242;2024-03-02T13:45:38;13.91;83.14
69335;SHT31;56477;52.742;15.242;2024-03-02T13:48:05;13.75;83.77
69335;SHT31;56477;52.742;15.242;2024-03-02T13:50:31;13.60;83.89
69335;SHT31;56477;52.742;15.242;2024-03-02T13:52:58;13.57;83.82
69335;SHT31;56477;52.742;15.242;2024-03-02T13:55:23;13.60;83.75
69335;SHT31;56477;52.742;15.242;2024-03-02T13:57:49;13.73;83.69
69335;SHT31;56477;52.742;15.242;2024-03-02T14:00:17;13.70;83.34
69335;SHT31;56477;52.742;15.242;2024-03-02T14:02:43;13.67;83.20
69335;SHT31;56477;52.742;15.242;2024-03-02T14:05:10;13.70;83.47
69335;SHT31;56477;52.742;15.242;2024-03-02T14:07:38;13.66;82.94
69335;SHT31;56477;52.742;15.242;2024-03-02T14:10:04;13.64;83.08
69335;SHT31;56477;52.742;15.242;2024-03-02T14:12:30;13.64;83.66
69335;SHT31;56477;52.742;15.242;2024-03-02T14:14:56;13.64;84.64
69335;SHT31;56477;52.742;15.242;2024-03-02T14:17:25;13.64;84.81
69335;SHT31;56477;52.742;15.242;2024-03-02T14:19:51;13.70;83.96
69335;SHT31;56477;52.742;15.242;2024-03-02T14:22:20;13.57;83.98
69335;SHT31;56477;52.742;15.242;2024-03-02T14:24:46;13.49;84.40
69335;SHT31;56477;52.742;15.242;2024-03-02T14:27:13;13.40;84.17
69335;SHT31;56477;52.742;15.242;2024-03-02T14:29:40;13.33;84.49
69335;SHT31;56477;52.742;15.242;2024-03-02T14:32:07;13.20;84.57
69335;SHT31;56477;52.742;15.242;2024-03-02T14:34:32;13.09;84.86
69335;SHT31;56477;52.742;15.242;2024-03-02T14:36:59;13.10;84.89
69335;SHT31;56477;52.742;15.242;2024-03-02T14:39:26;13.12;84.93
69335;SHT31;56477;52.742;15.242;2024-03-02T14:41:52;13.10;85.06
69335;SHT31;56477;52.742;15.242;2024-03-02T14:44:18;13.18;84.87
69335;SHT31;56477;52.742;15.242;2024-03-02T14:46:48;13.09;85.07
69335;SHT31;56477;52.742;15.242;2024-03-02T14:49:14;12.96;85.16
69335;SHT31;56477;52.742;15.242;2024-03-02T14:51:41;13.03;85.15
69335;SHT31;56477;52.742;15.242;2024-03-02T14:54:06;13.08;85.43
69335;SHT31;56477;52.742;15.242;2024-03-02T14:56:32;13.12;85.12
69335;SHT31;56477;52.742;15.242;2024-03-02T14:58:58;13.06;84.94
69335;SHT31;56477;52.742;15.242;2024-03-02T15:01:24;13.10;84.86
69335;SHT31;56477;52.742;15.242;2024-03-02T15:03:51;13.06;84.77
69335;SHT31;56477;52.742;15.242;2024-03-02T15:06:17;13.09;84.72
69335;SHT31;56477;52.742;15.242;2024-03-02T15:08:43;13.08;84.92
69335;SHT31;56477;52.742;15.242;2024-03-02T15:11:12;12.95;85.55
69335;SHT31;56477;52.742;15.242;2024-03-02T15:13:38;12.89;84.97
69335;SHT31;56477;52.742;15.242;2024-03-02T15:16:05;12.95;84.92
69335;SHT31;56477;52.742;15.242;2024-03-02T15:18:31;12.93;85.10
69335;SHT31;56477;52.742;15.242;2024-03-02T15:20:57;12.95;85.25
69335;SHT31;56477;52.742;15.242;2024-03-02T15:23:22;12.91;84.82
69335;SHT31;56477;52.742;15.242;2024-03-02T15:25:49;12.87;85.10
69335;SHT31;56477;52.742;15.242;2024-03-02T15:28:16;12.89;85.00
69335;SHT31;56477;52.742;15.242;2024-03-02T15:30:42;12.84;84.99